createdAt,value
2023-04-15T00:00:39.241Z,194.87
2023-04-15T00:04:39.310Z,249.36
2023-04-15T00:08:39.245Z,249.54
2023-04-15T00:12:38.850Z,149.61
2023-04-15T00:16:39.350Z,128.53
2023-04-15T00:20:39.242Z,149.66
2023-04-15T00:24:39.269Z,149.10
2023-04-15T00:28:38.905Z,174.42
2023-04-15T00:32:39.049Z,186.32
2023-04-15T00:36:39.345Z,194.55
2023-04-15T00:40:39.271Z,204.24
2023-04-15T00:44:39.269Z,185.20
2023-04-15T00:48:39.037Z,177.07
2023-04-15T00:52:39.116Z,196.78
2023-04-15T00:56:39.726Z,199.44
2023-04-15T01:00:39.230Z,181.78
2023-04-15T01:04:39.399Z,191.93
2023-04-15T01:08:39.143Z,203.34
2023-04-15T01:12:39.108Z,218.11
2023-04-15T01:16:39.202Z,222.65
2023-04-15T01:20:39.312Z,232.02
2023-04-15T01:24:39.763Z,195.09
2023-04-15T01:28:39.378Z,197.68
2023-04-15T01:32:39.839Z,188.48
2023-04-15T01:36:39.770Z,194.89
2023-04-15T01:40:39.794Z,213.87
2023-04-15T01:44:39.795Z,245.40
2023-04-15T01:48:39.411Z,249.90
2023-04-15T01:52:39.494Z,249.84
2023-04-15T01:56:39.790Z,248.32
2023-04-15T02:00:39.808Z,238.54
2023-04-15T02:04:39.824Z,227.21
2023-04-15T02:08:39.678Z,215.37
2023-04-15T02:12:39.776Z,221.42
2023-04-15T02:16:40.336Z,225.11
2023-04-15T02:20:40.275Z,205.29
2023-04-15T02:24:39.842Z,193.93
2023-04-15T02:28:39.873Z,192.35
2023-04-15T02:32:40.480Z,236.26
2023-04-15T02:36:39.955Z,250.35
2023-04-15T02:40:40.322Z,250.00
2023-04-15T02:44:40.399Z,244.06
2023-04-15T02:48:40.117Z,227.39
2023-04-15T02:52:40.298Z,227.28
2023-04-15T02:56:40.308Z,228.82
2023-04-15T03:00:52.313Z,238.65
2023-04-15T03:04:52.800Z,235.42
2023-04-15T03:08:40.127Z,230.41
2023-04-15T03:12:40.295Z,236.51
2023-04-15T03:16:40.088Z,250.00
2023-04-15T03:20:40.166Z,249.32
2023-04-15T03:24:50.746Z,250.00
2023-04-15T03:28:39.981Z,259.24
2023-04-15T03:32:40.028Z,247.67
2023-04-15T03:36:39.941Z,223.93
2023-04-15T03:40:39.874Z,224.88
2023-04-15T03:44:39.996Z,185.67
2023-04-15T03:48:40.149Z,153.23
2023-04-15T03:52:40.347Z,170.59
2023-04-15T03:56:40.535Z,168.25
2023-04-15T04:00:40.634Z,176.39
2023-04-15T04:04:40.799Z,136.94
2023-04-15T04:08:41.042Z,138.62
2023-04-15T04:12:41.384Z,151.40
2023-04-15T04:16:41.348Z,165.14
2023-04-15T04:20:41.383Z,155.82
2023-04-15T04:24:41.517Z,175.14
2023-04-15T04:28:41.839Z,199.00
2023-04-15T04:32:41.792Z,220.36
2023-04-15T04:36:41.864Z,214.23
2023-04-15T04:40:41.980Z,205.32
2023-04-15T04:44:42.078Z,52.45
2023-04-15T04:48:42.365Z,25.00
2023-04-15T04:52:42.380Z,27.64
2023-04-15T04:56:42.365Z,65.43
2023-04-15T05:00:42.425Z,93.99
2023-04-15T05:04:42.568Z,130.48
2023-04-15T05:08:42.730Z,151.07
2023-04-15T05:12:43.503Z,163.98
2023-04-15T05:16:43.490Z,161.72
2023-04-15T05:20:43.227Z,169.19
2023-04-15T05:24:43.530Z,172.56
2023-04-15T05:28:43.875Z,186.63
2023-04-15T05:32:44.057Z,194.24
2023-04-15T05:36:43.892Z,149.30
2023-04-15T05:40:44.074Z,57.53
2023-04-15T05:44:44.386Z,28.55
2023-04-15T05:48:44.392Z,45.11
2023-04-15T05:52:44.889Z,18.04
2023-04-15T05:56:44.678Z,36.53
2023-04-15T06:00:44.831Z,63.63
2023-04-15T06:04:45.378Z,40.96
2023-04-15T06:08:56.916Z,33.16
2023-04-15T06:12:45.013Z,0.00
2023-04-15T06:21:04.970Z,25.00
2023-04-15T06:25:15.244Z,89.53
2023-04-15T06:29:04.953Z,0.00
2023-04-15T06:33:05.217Z,0.00
2023-04-15T06:37:06.324Z,82.99
2023-04-15T06:41:04.886Z,0.00
2023-04-15T06:45:15.250Z,60.14
2023-04-15T06:49:04.773Z,67.92
2023-04-15T06:53:04.741Z,111.88
2023-04-15T06:57:04.707Z,0.00
2023-04-15T07:01:04.703Z,78.90
2023-04-15T07:05:04.792Z,13.47
2023-04-15T07:09:05.700Z,103.64
2023-04-15T07:13:05.272Z,136.05
2023-04-15T07:17:04.849Z,186.35
2023-04-15T07:21:04.672Z,164.14
2023-04-15T07:33:44.216Z,25.00
2023-04-15T07:37:44.198Z,29.09
2023-04-15T07:41:44.267Z,56.73
2023-04-15T07:45:44.455Z,17.54
2023-04-15T07:54:17.125Z,25.00
2023-04-15T07:58:04.422Z,25.00
2023-04-15T08:02:04.392Z,25.14
2023-04-15T08:06:04.631Z,132.78
2023-04-15T08:10:04.796Z,53.98
2023-04-15T08:14:04.323Z,199.89
2023-04-15T08:18:04.634Z,151.66
2023-04-15T08:22:04.143Z,15.15
2023-04-15T08:26:04.169Z,13.18
2023-04-15T08:30:05.076Z,133.88
2023-04-15T08:34:04.190Z,27.15
2023-04-15T08:38:03.998Z,57.93
2023-04-15T08:42:03.913Z,179.09
2023-04-15T08:46:04.652Z,0.00
2023-04-15T08:50:04.092Z,157.36
2023-04-15T08:54:04.127Z,78.38
2023-04-15T08:58:04.149Z,209.70
2023-04-15T09:02:03.882Z,232.24
2023-04-15T09:14:43.590Z,25.00
2023-04-15T09:18:53.886Z,61.65
2023-04-15T09:22:43.483Z,0.00
2023-04-15T09:26:43.881Z,0.00
2023-04-15T09:30:43.446Z,0.00
2023-04-15T09:34:43.859Z,0.00
2023-04-15T09:38:43.410Z,46.95
2023-04-15T09:42:43.461Z,0.00
2023-04-15T09:46:43.702Z,115.00
2023-04-15T09:55:18.176Z,25.00
2023-04-15T09:59:13.621Z,25.00
2023-04-15T10:03:03.441Z,25.00
2023-04-15T10:07:03.615Z,35.36
2023-04-15T10:11:03.290Z,100.34
2023-04-15T10:15:03.704Z,45.07
2023-04-15T10:19:03.415Z,25.00
2023-04-15T10:23:03.343Z,49.13
2023-04-15T10:27:03.633Z,0.00
2023-04-15T10:31:03.709Z,29.19
2023-04-15T10:35:03.629Z,125.94
2023-04-15T10:39:03.635Z,62.85
2023-04-15T10:43:03.271Z,66.49
2023-04-15T10:47:03.111Z,65.36
2023-04-15T10:51:03.093Z,47.05
2023-04-15T10:55:03.058Z,28.87
2023-04-15T11:16:22.583Z,25.00
2023-04-15T11:20:22.899Z,34.86
2023-04-15T11:24:22.919Z,52.23
2023-04-15T11:28:22.426Z,79.66
2023-04-15T11:32:22.450Z,105.91
2023-04-15T11:36:22.396Z,148.64
2023-04-15T11:40:22.498Z,148.87
2023-04-15T11:44:22.285Z,134.01
2023-04-15T11:48:22.333Z,176.16
2023-04-15T11:52:22.619Z,197.67
2023-04-15T11:56:22.543Z,137.46
2023-04-15T12:00:22.953Z,56.07
2023-04-15T12:04:25.175Z,35.55
2023-04-15T12:08:22.421Z,14.99
2023-04-15T12:12:22.418Z,21.20
2023-04-15T12:16:22.408Z,21.39
2023-04-15T12:20:22.509Z,47.04
2023-04-15T12:24:22.310Z,66.94
2023-04-15T12:28:22.474Z,98.80
2023-04-15T12:32:22.318Z,109.73
2023-04-15T12:36:22.502Z,131.20
2023-04-15T12:42:00.683Z,25.00
2023-04-15T12:46:00.845Z,68.74
2023-04-15T12:50:00.444Z,72.74
2023-04-15T12:54:00.480Z,25.39
2023-04-15T12:58:00.759Z,69.81
2023-04-15T13:06:20.108Z,25.00
2023-04-15T13:10:20.074Z,51.17
2023-04-15T13:14:19.992Z,124.71
2023-04-15T13:18:20.493Z,104.84
2023-04-15T13:22:20.330Z,136.12
2023-04-15T13:26:19.930Z,125.00
2023-04-15T13:30:19.869Z,25.00
2023-04-15T13:34:20.491Z,54.02
2023-04-15T13:38:19.835Z,81.50
2023-04-15T13:42:19.790Z,162.40
2023-04-15T13:46:19.939Z,175.28
2023-04-15T13:50:19.725Z,151.72
2023-04-15T13:54:19.880Z,166.78
2023-04-15T13:58:19.857Z,149.36
2023-04-15T14:02:19.903Z,194.39
2023-04-15T14:06:19.869Z,216.69
2023-04-15T14:10:19.600Z,250.00
2023-04-15T14:14:19.846Z,231.31
2023-04-15T14:18:19.890Z,159.44
2023-04-15T14:22:19.863Z,209.05
2023-04-15T14:26:19.413Z,244.33
2023-04-15T14:30:19.346Z,249.84
2023-04-15T14:41:15.880Z,25.00
2023-04-15T15:04:07.832Z,25.00
2023-04-15T15:07:57.460Z,25.00
2023-04-15T15:11:57.485Z,0.00
2023-04-15T15:15:57.070Z,0.00
2023-04-15T15:19:57.517Z,0.00
2023-04-15T15:23:57.281Z,27.59
2023-04-15T15:27:57.553Z,26.14
2023-04-15T15:31:58.074Z,33.60
2023-04-15T15:35:57.952Z,86.68
2023-04-15T15:39:58.460Z,117.88
2023-04-15T15:43:58.606Z,128.25
2023-04-15T15:47:58.528Z,133.00
2023-04-15T15:51:58.643Z,184.77
2023-04-15T16:07:48.881Z,25.00
2023-04-15T16:11:48.791Z,25.00
2023-04-15T16:15:48.821Z,31.55
2023-04-15T16:19:56.851Z,0.00
2023-04-15T16:23:49.771Z,0.00
2023-04-15T16:28:00.882Z,16.44
2023-04-15T16:31:49.719Z,0.00
2023-04-15T16:35:48.807Z,26.03
2023-04-15T16:39:48.828Z,69.64
2023-04-15T16:43:48.933Z,126.59
2023-04-15T16:52:34.843Z,25.00
2023-04-15T16:56:34.936Z,25.00
2023-04-15T17:00:35.101Z,24.60
2023-04-15T17:08:54.757Z,25.00
2023-04-15T17:12:54.835Z,30.78
2023-04-15T17:16:54.722Z,44.93
2023-04-15T17:20:54.520Z,84.07
2023-04-15T17:24:54.661Z,55.21
2023-04-15T17:28:54.791Z,78.79
2023-04-15T17:32:54.862Z,64.90
2023-04-15T17:36:54.611Z,50.29
2023-04-15T17:40:54.641Z,48.89
2023-04-15T17:44:54.996Z,97.57
2023-04-15T17:48:54.924Z,202.55
2023-04-15T17:52:54.638Z,248.07
2023-04-15T17:56:54.773Z,248.93
2023-04-15T18:00:54.805Z,176.06
2023-04-15T18:04:55.985Z,183.49
2023-04-15T18:17:34.885Z,25.00
2023-04-15T18:21:34.602Z,21.84
2023-04-15T18:25:35.041Z,25.63
2023-04-15T18:29:34.541Z,70.98
2023-04-15T18:33:35.154Z,75.77
2023-04-15T18:37:34.601Z,37.80
2023-04-15T18:41:34.505Z,26.66
2023-04-15T18:45:34.512Z,3.87
2023-04-15T18:49:34.545Z,29.25
2023-04-15T18:53:34.518Z,25.00
2023-04-15T18:57:34.840Z,115.83
2023-04-15T19:01:34.423Z,151.20
2023-04-15T19:05:34.571Z,215.02
2023-04-15T19:09:34.236Z,149.84
2023-04-15T19:13:34.628Z,119.32
2023-04-15T19:17:34.172Z,35.17
2023-04-15T19:21:34.299Z,41.05
2023-04-15T19:25:35.008Z,156.13
2023-04-15T19:29:34.746Z,53.51
2023-04-15T19:33:35.026Z,0.00
2023-04-15T19:37:48.884Z,10.22
2023-04-15T19:45:55.204Z,25.00
2023-04-15T19:49:55.027Z,58.27
2023-04-15T19:53:55.101Z,239.65
2023-04-15T19:57:54.732Z,247.92
2023-04-15T20:01:55.264Z,200.20
2023-04-15T20:05:55.068Z,184.59
2023-04-15T20:09:54.642Z,175.81
2023-04-15T20:13:55.065Z,207.73
2023-04-15T20:17:54.583Z,231.66
2023-04-15T20:21:54.583Z,247.70
2023-04-15T20:25:54.557Z,250.00
2023-04-15T20:29:54.487Z,238.50
2023-04-15T20:33:54.547Z,231.17
2023-04-15T20:37:54.437Z,194.66
2023-04-15T20:41:54.373Z,187.61
2023-04-15T20:45:54.620Z,221.91
2023-04-15T20:49:54.535Z,231.50
2023-04-15T20:53:54.244Z,205.80
2023-04-15T20:57:54.293Z,238.55
2023-04-15T21:01:54.659Z,248.36
2023-04-15T21:05:54.746Z,187.57
2023-04-15T21:09:54.266Z,196.67
2023-04-15T21:13:54.293Z,210.06
2023-04-15T21:17:54.580Z,226.41
2023-04-15T21:21:54.692Z,251.72
2023-04-15T21:25:55.074Z,239.71
2023-04-15T21:29:54.834Z,250.00
2023-04-15T21:33:54.861Z,249.61
2023-04-15T21:37:55.112Z,223.73
2023-04-15T21:41:55.121Z,217.98
2023-04-15T21:46:24.176Z,248.23
2023-04-15T21:49:56.601Z,245.50
2023-04-15T21:53:55.260Z,213.98
2023-04-15T21:57:55.375Z,203.00
2023-04-15T22:01:56.190Z,215.85
2023-04-15T22:05:56.089Z,222.86
2023-04-15T22:09:56.091Z,235.96
2023-04-15T22:13:56.133Z,243.46
2023-04-15T22:17:56.583Z,237.80
2023-04-15T22:21:56.689Z,229.26
2023-04-15T22:25:57.196Z,241.87
2023-04-15T22:29:56.861Z,233.82
2023-04-15T22:33:57.212Z,237.87
2023-04-15T22:37:57.667Z,248.09
2023-04-15T22:41:57.570Z,245.26
2023-04-15T22:45:58.322Z,222.85
2023-04-15T22:49:57.933Z,227.62
2023-04-15T22:53:58.039Z,205.01
2023-04-15T22:57:58.616Z,209.95
2023-04-15T23:01:58.645Z,213.89
2023-04-15T23:05:59.087Z,207.92
2023-04-15T23:14:04.665Z,25.00
2023-04-15T23:18:03.188Z,20.30
2023-04-15T23:22:03.142Z,25.00
2023-04-15T23:26:03.162Z,24.97
2023-04-15T23:30:02.868Z,71.57
2023-04-15T23:34:03.137Z,110.12
2023-04-15T23:38:03.173Z,153.63
2023-04-15T23:42:03.158Z,80.96
2023-04-15T23:46:03.103Z,32.46
2023-04-15T23:50:02.909Z,47.10
2023-04-15T23:54:03.138Z,144.85
2023-04-15T23:58:03.109Z,158.82
